sensor_id;sensor_type;location;lat;lon;timestamp;temperature;humidity
18225;DHT22;9237;48.590;8.854;2023-02-15T00:01:49;-1.40;99.90
18225;DHT22;9237;48.590;8.854;2023-02-15T00:04:17;-1.40;99.90
18225;DHT22;9237;48.590;8.854;2023-02-15T00:06:44;-1.50;99.90
18225;DHT22;9237;48.590;8.854;2023-02-15T00:09:12;-1.50;99.90
18225;DHT22;9237;48.590;8.854;2023-02-15T00:11:40;-1.60;99.90
18225;DHT22;9237;48.590;8.854;2023-02-15T00:14:09;-1.60;99.90
18225;DHT22;9237;48.590;8.854;2023-02-15T00:16:37;-1.60;99.90
18225;DHT22;9237;48.590;8.854;2023-02-15T00:19:04;-1.60;99.90
18225;DHT22;9237;48.590;8.854;2023-02-15T00:21:32;-1.60;99.90
18225;DHT22;9237;48.590;8.854;2023-02-15T00:24:01;-1.70;99.90
18225;DHT22;9237;48.590;8.854;2023-02-15T00:26:30;-1.70;99.90
18225;DHT22;9237;48.590;8.854;2023-02-15T00:28:58;-1.80;99.90
18225;DHT22;9237;48.590;8.854;2023-02-15T00:31:25;-1.80;99.90
18225;DHT22;9237;48.590;8.854;2023-02-15T00:33:52;-1.90;99.90
18225;DHT22;9237;48.590;8.854;2023-02-15T00:36:19;-1.90;99.90
18225;DHT22;9237;48.590;8.854;2023-02-15T00:38:46;-1.90;99.90
18225;DHT22;9237;48.590;8.854;2023-02-15T00:41:13;-1.90;99.90
18225;DHT22;9237;48.590;8.854;2023-02-15T00:43:41;-2.00;99.90
18225;DHT22;9237;48.590;8.854;2023-02-15T00:46:08;-2.00;99.90
18225;DHT22;9237;48.590;8.854;2023-02-15T00:48:35;-2.10;99.90
18225;DHT22;9237;48.590;8.854;2023-02-15T00:51:02;-2.00;99.90
18225;DHT22;9237;48.590;8.854;2023-02-15T00:53:29;-2.00;99.90
18225;DHT22;9237;48.590;8.854;2023-02-15T00:55:57;-2.00;99.90
18225;DHT22;9237;48.590;8.854;2023-02-15T00:58:25;-1.90;99.90
18225;DHT22;9237;48.590;8.854;2023-02-15T01:00:53;-1.80;99.90
18225;DHT22;9237;48.590;8.854;2023-02-15T01:03:21;-1.70;99.90
18225;DHT22;9237;48.590;8.854;2023-02-15T01:05:48;-1.70;99.90
18225;DHT22;9237;48.590;8.854;2023-02-15T01:08:17;-1.70;99.90
18225;DHT22;9237;48.590;8.854;2023-02-15T01:10:44;-1.60;99.90
18225;DHT22;9237;48.590;8.854;2023-02-15T01:13:13;-1.60;99.90
18225;DHT22;9237;48.590;8.854;2023-02-15T01:15:41;-1.60;99.90
18225;DHT22;9237;48.590;8.854;2023-02-15T01:18:09;-1.70;99.90
18225;DHT22;9237;48.590;8.854;2023-02-15T01:20:38;-1.90;99.90
18225;DHT22;9237;48.590;8.854;2023-02-15T01:23:07;-2.00;99.90
18225;DHT22;9237;48.590;8.854;2023-02-15T01:25:35;-2.10;99.90
18225;DHT22;9237;48.590;8.854;2023-02-15T01:28:02;-2.10;99.90
18225;DHT22;9237;48.590;8.854;2023-02-15T01:30:29;-2.10;99.90
18225;DHT22;9237;48.590;8.854;2023-02-15T01:32:56;-2.10;99.90
18225;DHT22;9237;48.590;8.854;2023-02-15T01:35:25;-2.10;99.90
18225;DHT22;9237;48.590;8.854;2023-02-15T01:37:52;-2.10;99.90
18225;DHT22;9237;48.590;8.854;2023-02-15T01:40:19;-2.20;99.90
18225;DHT22;9237;48.590;8.854;2023-02-15T01:42:46;-2.20;99.90
18225;DHT22;9237;48.590;8.854;2023-02-15T01:45:20;-2.30;99.90
18225;DHT22;9237;48.590;8.854;2023-02-15T01:47:52;-2.30;99.90
18225;DHT22;9237;48.590;8.854;2023-02-15T01:50:25;-2.40;99.90
18225;DHT22;9237;48.590;8.854;2023-02-15T01:52:57;-2.40;99.90
18225;DHT22;9237;48.590;8.854;2023-02-15T01:55:28;-2.40;99.90
18225;DHT22;9237;48.590;8.854;2023-02-15T01:57:56;-2.40;99.90
18225;DHT22;9237;48.590;8.854;2023-02-15T02:00:23;-2.40;99.90
18225;DHT22;9237;48.590;8.854;2023-02-15T02:02:53;-2.50;99.90
18225;DHT22;9237;48.590;8.854;2023-02-15T02:05:20;-2.40;99.90
18225;DHT22;9237;48.590;8.854;2023-02-15T02:07:50;-2.30;99.90
18225;DHT22;9237;48.590;8.854;2023-02-15T02:10:20;-2.30;99.90
18225;DHT22;9237;48.590;8.854;2023-02-15T02:12:50;-2.20;99.90
18225;DHT22;9237;48.590;8.854;2023-02-15T02:15:19;-2.00;99.90
18225;DHT22;9237;48.590;8.854;2023-02-15T02:17:55;-1.90;99.90
18225;DHT22;9237;48.590;8.854;2023-02-15T02:20:50;-2.10;99.90
18225;DHT22;9237;48.590;8.854;2023-02-15T02:23:37;-2.30;99.90
18225;DHT22;9237;48.590;8.854;2023-02-15T02:26:35;-2.20;99.90
18225;DHT22;9237;48.590;8.854;2023-02-15T02:35:10;-2.50;99.90
18225;DHT22;9237;48.590;8.854;2023-02-15T02:37:47;-2.60;99.90
18225;DHT22;9237;48.590;8.854;2023-02-15T02:40:20;-2.60;99.90
18225;DHT22;9237;48.590;8.854;2023-02-15T02:42:54;-2.70;99.90
18225;DHT22;9237;48.590;8.854;2023-02-15T02:45:26;-2.30;99.90
18225;DHT22;9237;48.590;8.854;2023-02-15T02:47:58;-2.70;99.90
18225;DHT22;9237;48.590;8.854;2023-02-15T02:50:30;-2.70;99.90
18225;DHT22;9237;48.590;8.854;2023-02-15T02:52:59;-2.70;99.90
18225;DHT22;9237;48.590;8.854;2023-02-15T02:55:30;-2.80;99.90
18225;DHT22;9237;48.590;8.854;2023-02-15T02:58:02;-2.80;99.90
18225;DHT22;9237;48.590;8.854;2023-02-15T03:00:32;-2.70;99.90
18225;DHT22;9237;48.590;8.854;2023-02-15T03:03:05;-2.80;99.90
18225;DHT22;9237;48.590;8.854;2023-02-15T03:05:38;-2.80;99.90
18225;DHT22;9237;48.590;8.854;2023-02-15T03:08:07;-2.70;99.90
18225;DHT22;9237;48.590;8.854;2023-02-15T03:10:37;-2.60;99.90
18225;DHT22;9237;48.590;8.854;2023-02-15T03:13:04;-2.50;99.90
18225;DHT22;9237;48.590;8.854;2023-02-15T03:15:34;-2.60;99.90
18225;DHT22;9237;48.590;8.854;2023-02-15T03:18:18;-2.80;99.90
18225;DHT22;9237;48.590;8.854;2023-02-15T03:20:49;-2.90;99.90
18225;DHT22;9237;48.590;8.854;2023-02-15T03:23:18;-2.90;99.90
18225;DHT22;9237;48.590;8.854;2023-02-15T03:25:51;-3.00;99.90
18225;DHT22;9237;48.590;8.854;2023-02-15T03:28:22;-3.00;99.90
18225;DHT22;9237;48.590;8.854;2023-02-15T03:30:53;-3.00;99.90
18225;DHT22;9237;48.590;8.854;2023-02-15T03:33:23;-3.00;99.90
18225;DHT22;9237;48.590;8.854;2023-02-15T03:35:58;-2.90;99.90
18225;DHT22;9237;48.590;8.854;2023-02-15T03:38:34;-3.00;99.90
18225;DHT22;9237;48.590;8.854;2023-02-15T03:41:04;-3.00;99.90
18225;DHT22;9237;48.590;8.854;2023-02-15T03:43:43;-3.10;99.90
18225;DHT22;9237;48.590;8.854;2023-02-15T03:46:14;-3.10;99.90
18225;DHT22;9237;48.590;8.854;2023-02-15T03:48:44;-3.10;99.90
18225;DHT22;9237;48.590;8.854;2023-02-15T03:51:17;-3.20;99.90
18225;DHT22;9237;48.590;8.854;2023-02-15T03:54:03;-3.20;99.90
18225;DHT22;9237;48.590;8.854;2023-02-15T03:56:30;-3.10;99.90
18225;DHT22;9237;48.590;8.854;2023-02-15T03:58:58;-3.20;99.90
18225;DHT22;9237;48.590;8.854;2023-02-15T04:01:49;-3.20;99.90
18225;DHT22;9237;48.590;8.854;2023-02-15T04:04:33;-3.20;99.90
18225;DHT22;9237;48.590;8.854;2023-02-15T04:07:03;-3.20;99.90
18225;DHT22;9237;48.590;8.854;2023-02-15T04:09:30;-3.30;99.90
18225;DHT22;9237;48.590;8.854;2023-02-15T04:12:15;-3.20;99.90
18225;DHT22;9237;48.590;8.854;2023-02-15T04:14:42;-3.20;99.90
18225;DHT22;9237;48.590;8.854;2023-02-15T04:17:26;-3.10;99.90
18225;DHT22;9237;48.590;8.854;2023-02-15T04:19:53;-3.20;99.90
18225;DHT22;9237;48.590;8.854;2023-02-15T04:22:38;-3.30;99.90
18225;DHT22;9237;48.590;8.854;2023-02-15T04:25:23;-3.30;99.90
18225;DHT22;9237;48.590;8.854;2023-02-15T04:27:51;-3.20;99.90
18225;DHT22;9237;48.590;8.854;2023-02-15T04:30:20;-3.20;99.90
18225;DHT22;9237;48.590;8.854;2023-02-15T04:32:48;-3.30;99.90
18225;DHT22;9237;48.590;8.854;2023-02-15T04:35:15;-3.40;99.90
18225;DHT22;9237;48.590;8.854;2023-02-15T04:37:44;-3.30;99.90
18225;DHT22;9237;48.590;8.854;2023-02-15T04:40:13;-3.20;99.90
18225;DHT22;9237;48.590;8.854;2023-02-15T04:42:40;-3.10;99.90
18225;DHT22;9237;48.590;8.854;2023-02-15T04:45:07;-3.00;99.90
18225;DHT22;9237;48.590;8.854;2023-02-15T04:47:34;-2.90;99.90
18225;DHT22;9237;48.590;8.854;2023-02-15T04:50:01;-2.80;99.90
18225;DHT22;9237;48.590;8.854;2023-02-15T04:52:28;-2.90;99.90
18225;DHT22;9237;48.590;8.854;2023-02-15T04:54:57;-3.10;99.90
18225;DHT22;9237;48.590;8.854;2023-02-15T04:57:23;-3.20;99.90
18225;DHT22;9237;48.590;8.854;2023-02-15T04:59:50;-3.30;99.90
18225;DHT22;9237;48.590;8.854;2023-02-15T05:02:17;-3.40;99.90
18225;DHT22;9237;48.590;8.854;2023-02-15T05:04:44;-3.40;99.90
18225;DHT22;9237;48.590;8.854;2023-02-15T05:07:11;-3.50;99.90
18225;DHT22;9237;48.590;8.854;2023-02-15T05:09:37;-3.50;99.90
18225;DHT22;9237;48.590;8.854;2023-02-15T05:12:06;-3.60;99.90
18225;DHT22;9237;48.590;8.854;2023-02-15T05:14:33;-3.70;99.90
18225;DHT22;9237;48.590;8.854;2023-02-15T05:17:00;-3.60;99.90
18225;DHT22;9237;48.590;8.854;2023-02-15T05:19:28;-3.50;99.90
18225;DHT22;9237;48.590;8.854;2023-02-15T05:21:55;-3.40;99.90
18225;DHT22;9237;48.590;8.854;2023-02-15T05:24:22;-3.40;99.90
18225;DHT22;9237;48.590;8.854;2023-02-15T05:27:03;-3.40;99.90
18225;DHT22;9237;48.590;8.854;2023-02-15T05:29:49;-3.40;99.90
18225;DHT22;9237;48.590;8.854;2023-02-15T05:32:16;-3.50;99.90
18225;DHT22;9237;48.590;8.854;2023-02-15T05:34:42;-3.60;99.90
18225;DHT22;9237;48.590;8.854;2023-02-15T05:37:09;-3.60;99.90
18225;DHT22;9237;48.590;8.854;2023-02-15T05:39:36;-3.60;99.90
18225;DHT22;9237;48.590;8.854;2023-02-15T05:42:03;-3.60;99.90
18225;DHT22;9237;48.590;8.854;2023-02-15T05:44:30;-3.60;99.90
18225;DHT22;9237;48.590;8.854;2023-02-15T05:46:58;-3.60;99.90
18225;DHT22;9237;48.590;8.854;2023-02-15T05:49:25;-3.60;99.90
18225;DHT22;9237;48.590;8.854;2023-02-15T05:51:52;-3.60;99.90
18225;DHT22;9237;48.590;8.854;2023-02-15T05:54:19;-3.50;99.90
18225;DHT22;9237;48.590;8.854;2023-02-15T05:56:46;-3.50;99.90
18225;DHT22;9237;48.590;8.854;2023-02-15T05:59:12;-3.50;99.90
18225;DHT22;9237;48.590;8.854;2023-02-15T06:01:39;-3.40;99.90
18225;DHT22;9237;48.590;8.854;2023-02-15T06:04:07;-3.40;99.90
18225;DHT22;9237;48.590;8.854;2023-02-15T06:06:34;-3.20;99.90
18225;DHT22;9237;48.590;8.854;2023-02-15T06:09:01;-3.20;99.90
18225;DHT22;9237;48.590;8.854;2023-02-15T06:11:28;-3.10;99.90
18225;DHT22;9237;48.590;8.854;2023-02-15T06:13:55;-3.10;99.90
18225;DHT22;9237;48.590;8.854;2023-02-15T06:16:22;-3.20;99.90
18225;DHT22;9237;48.590;8.854;2023-02-15T06:18:49;-3.30;99.90
18225;DHT22;9237;48.590;8.854;2023-02-15T06:21:17;-3.40;99.90
18225;DHT22;9237;48.590;8.854;2023-02-15T06:23:43;-3.60;99.90
18225;DHT22;9237;48.590;8.854;2023-02-15T06:26:10;-3.60;99.90
18225;DHT22;9237;48.590;8.854;2023-02-15T06:28:37;-3.60;99.90
18225;DHT22;9237;48.590;8.854;2023-02-15T06:31:04;-3.40;99.90
18225;DHT22;9237;48.590;8.854;2023-02-15T06:33:31;-3.20;99.90
18225;DHT22;9237;48.590;8.854;2023-02-15T06:35:59;-3.10;99.90
18225;DHT22;9237;48.590;8.854;2023-02-15T06:38:28;-3.10;99.90
18225;DHT22;9237;48.590;8.854;2023-02-15T06:40:55;-3.10;99.90
18225;DHT22;9237;48.590;8.854;2023-02-15T06:43:22;-3.20;99.90
18225;DHT22;9237;48.590;8.854;2023-02-15T06:45:49;-3.20;99.90
18225;DHT22;9237;48.590;8.854;2023-02-15T06:48:15;-3.20;99.90
18225;DHT22;9237;48.590;8.854;2023-02-15T06:50:42;-3.20;99.90
18225;DHT22;9237;48.590;8.854;2023-02-15T06:53:09;-3.20;99.90
18225;DHT22;9237;48.590;8.854;2023-02-15T06:55:37;-3.10;99.90
18225;DHT22;9237;48.590;8.854;2023-02-15T06:58:04;-2.90;99.90
18225;DHT22;9237;48.590;8.854;2023-02-15T07:00:31;-3.00;99.90
18225;DHT22;9237;48.590;8.854;2023-02-15T07:02:58;-3.00;99.90
18225;DHT22;9237;48.590;8.854;2023-02-15T07:05:26;-3.10;99.90
18225;DHT22;9237;48.590;8.854;2023-02-15T07:07:56;-3.10;99.90
18225;DHT22;9237;48.590;8.854;2023-02-15T07:10:23;-3.00;99.90
18225;DHT22;9237;48.590;8.854;2023-02-15T07:12:52;-3.00;99.90
18225;DHT22;9237;48.590;8.854;2023-02-15T07:15:19;-2.90;99.90
18225;DHT22;9237;48.590;8.854;2023-02-15T07:17:47;-2.90;99.90
18225;DHT22;9237;48.590;8.854;2023-02-15T07:20:16;-2.80;99.90
18225;DHT22;9237;48.590;8.854;2023-02-15T07:22:44;-2.60;99.90
18225;DHT22;9237;48.590;8.854;2023-02-15T07:25:11;-2.40;99.90
18225;DHT22;9237;48.590;8.854;2023-02-15T07:27:39;-2.00;99.90
18225;DHT22;9237;48.590;8.854;2023-02-15T07:30:09;-1.50;99.90
18225;DHT22;9237;48.590;8.854;2023-02-15T07:32:36;-1.10;99.90
18225;DHT22;9237;48.590;8.854;2023-02-15T07:35:23;-0.70;99.90
18225;DHT22;9237;48.590;8.854;2023-02-15T07:37:50;-0.30;99.90
18225;DHT22;9237;48.590;8.854;2023-02-15T07:40:18;0.30;99.90
18225;DHT22;9237;48.590;8.854;2023-02-15T07:42:49;0.70;99.90
18225;DHT22;9237;48.590;8.854;2023-02-15T07:45:20;1.20;99.90
18225;DHT22;9237;48.590;8.854;2023-02-15T07:47:47;1.80;99.90
18225;DHT22;9237;48.590;8.854;2023-02-15T07:50:14;2.40;99.90
18225;DHT22;9237;48.590;8.854;2023-02-15T07:52:41;2.70;99.90
18225;DHT22;9237;48.590;8.854;2023-02-15T07:55:08;2.60;99.90
18225;DHT22;9237;48.590;8.854;2023-02-15T07:57:41;2.80;99.90
18225;DHT22;9237;48.590;8.854;2023-02-15T08:00:09;2.80;99.90
18225;DHT22;9237;48.590;8.854;2023-02-15T08:02:38;2.60;99.90
18225;DHT22;9237;48.590;8.854;2023-02-15T08:05:05;2.50;99.90
18225;DHT22;9237;48.590;8.854;2023-02-15T08:07:32;2.30;99.90
18225;DHT22;9237;48.590;8.854;2023-02-15T08:09:59;2.20;99.90
18225;DHT22;9237;48.590;8.854;2023-02-15T08:12:26;2.30;99.90
18225;DHT22;9237;48.590;8.854;2023-02-15T08:14:53;2.30;99.90
18225;DHT22;9237;48.590;8.854;2023-02-15T08:17:20;2.40;99.90
18225;DHT22;9237;48.590;8.854;2023-02-15T08:19:48;2.40;99.90
18225;DHT22;9237;48.590;8.854;2023-02-15T08:22:15;2.50;99.90
18225;DHT22;9237;48.590;8.854;2023-02-15T08:24:42;2.60;99.90
18225;DHT22;9237;48.590;8.854;2023-02-15T08:27:10;2.70;99.90
18225;DHT22;9237;48.590;8.854;2023-02-15T08:29:38;2.80;99.90
18225;DHT22;9237;48.590;8.854;2023-02-15T08:32:08;2.80;99.90
18225;DHT22;9237;48.590;8.854;2023-02-15T08:34:37;2.90;99.90
18225;DHT22;9237;48.590;8.854;2023-02-15T08:37:06;3.00;99.90
18225;DHT22;9237;48.590;8.854;2023-02-15T08:39:33;2.90;99.90
18225;DHT22;9237;48.590;8.854;2023-02-15T08:42:00;2.90;99.90
18225;DHT22;9237;48.590;8.854;2023-02-15T08:44:27;2.90;99.90
18225;DHT22;9237;48.590;8.854;2023-02-15T08:46:54;2.80;99.90
18225;DHT22;9237;48.590;8.854;2023-02-15T08:49:22;2.80;99.90
18225;DHT22;9237;48.590;8.854;2023-02-15T08:51:50;2.90;99.90
18225;DHT22;9237;48.590;8.854;2023-02-15T08:54:20;3.00;99.90
18225;DHT22;9237;48.590;8.854;2023-02-15T08:56:47;3.10;99.90
18225;DHT22;9237;48.590;8.854;2023-02-15T08:59:16;3.30;99.90
18225;DHT22;9237;48.590;8.854;2023-02-15T09:01:43;3.30;99.90
18225;DHT22;9237;48.590;8.854;2023-02-15T09:04:10;3.40;99.90
18225;DHT22;9237;48.590;8.854;2023-02-15T09:06:39;3.40;99.90
18225;DHT22;9237;48.590;8.854;2023-02-15T09:09:07;3.40;99.90
18225;DHT22;9237;48.590;8.854;2023-02-15T09:11:37;3.40;99.90
18225;DHT22;9237;48.590;8.854;2023-02-15T09:14:06;3.60;99.90
18225;DHT22;9237;48.590;8.854;2023-02-15T09:16:35;3.60;99.90
18225;DHT22;9237;48.590;8.854;2023-02-15T09:19:03;3.70;99.90
18225;DHT22;9237;48.590;8.854;2023-02-15T09:21:31;3.80;99.90
18225;DHT22;9237;48.590;8.854;2023-02-15T09:24:00;3.80;99.90
18225;DHT22;9237;48.590;8.854;2023-02-15T09:26:29;3.80;99.90
18225;DHT22;9237;48.590;8.854;2023-02-15T09:28:59;3.90;99.90
18225;DHT22;9237;48.590;8.854;2023-02-15T09:31:28;4.00;99.90
18225;DHT22;9237;48.590;8.854;2023-02-15T09:33:56;4.20;99.90
18225;DHT22;9237;48.590;8.854;2023-02-15T09:36:24;4.20;99.90
18225;DHT22;9237;48.590;8.854;2023-02-15T09:38:55;4.20;99.90
18225;DHT22;9237;48.590;8.854;2023-02-15T09:41:46;4.20;99.90
18225;DHT22;9237;48.590;8.854;2023-02-15T09:44:25;4.30;99.90
18225;DHT22;9237;48.590;8.854;2023-02-15T09:47:14;4.40;99.90
18225;DHT22;9237;48.590;8.854;2023-02-15T09:49:50;4.50;99.90
18225;DHT22;9237;48.590;8.854;2023-02-15T09:52:45;4.60;99.90
18225;DHT22;9237;48.590;8.854;2023-02-15T09:55:30;4.70;99.90
18225;DHT22;9237;48.590;8.854;2023-02-15T09:58:06;4.80;99.90
18225;DHT22;9237;48.590;8.854;2023-02-15T10:00:42;5.00;99.90
18225;DHT22;9237;48.590;8.854;2023-02-15T10:03:20;5.00;99.90
18225;DHT22;9237;48.590;8.854;2023-02-15T10:06:03;5.20;99.90
18225;DHT22;9237;48.590;8.854;2023-02-15T10:11:34;5.50;99.90
18225;DHT22;9237;48.590;8.854;2023-02-15T10:14:17;5.70;99.90
18225;DHT22;9237;48.590;8.854;2023-02-15T10:16:56;5.80;99.90
18225;DHT22;9237;48.590;8.854;2023-02-15T10:19:32;5.90;99.90
18225;DHT22;9237;48.590;8.854;2023-02-15T10:22:12;6.00;99.90
18225;DHT22;9237;48.590;8.854;2023-02-15T10:24:55;6.10;99.90
18225;DHT22;9237;48.590;8.854;2023-02-15T10:27:30;6.30;99.90
18225;DHT22;9237;48.590;8.854;2023-02-15T10:30:08;6.40;99.90
18225;DHT22;9237;48.590;8.854;2023-02-15T10:32:40;6.40;99.90
18225;DHT22;9237;48.590;8.854;2023-02-15T10:35:16;6.60;99.90
18225;DHT22;9237;48.590;8.854;2023-02-15T10:37:52;6.70;99.90
18225;DHT22;9237;48.590;8.854;2023-02-15T10:40:28;6.80;99.90
18225;DHT22;9237;48.590;8.854;2023-02-15T10:43:18;7.00;99.90
18225;DHT22;9237;48.590;8.854;2023-02-15T10:45:54;7.00;99.90
18225;DHT22;9237;48.590;8.854;2023-02-15T10:51:26;6.80;99.90
18225;DHT22;9237;48.590;8.854;2023-02-15T10:54:09;6.90;99.90
18225;DHT22;9237;48.590;8.854;2023-02-15T10:56:46;7.00;99.90
18225;DHT22;9237;48.590;8.854;2023-02-15T10:59:27;7.20;99.90
18225;DHT22;9237;48.590;8.854;2023-02-15T11:02:03;7.20;99.90
18225;DHT22;9237;48.590;8.854;2023-02-15T11:04:55;7.30;99.90
18225;DHT22;9237;48.590;8.854;2023-02-15T11:07:29;7.30;99.90
18225;DHT22;9237;48.590;8.854;2023-02-15T11:10:05;7.40;99.90
18225;DHT22;9237;48.590;8.854;2023-02-15T11:12:34;7.60;99.90
18225;DHT22;9237;48.590;8.854;2023-02-15T11:15:04;7.70;99.90
18225;DHT22;9237;48.590;8.854;2023-02-15T11:17:46;7.90;99.90
18225;DHT22;9237;48.590;8.854;2023-02-15T11:20:24;8.00;99.90
18225;DHT22;9237;48.590;8.854;2023-02-15T11:22:52;7.90;99.90
18225;DHT22;9237;48.590;8.854;2023-02-15T11:25:22;8.00;99.90
18225;DHT22;9237;48.590;8.854;2023-02-15T11:27:50;8.30;99.90
18225;DHT22;9237;48.590;8.854;2023-02-15T11:30:20;8.40;99.90
18225;DHT22;9237;48.590;8.854;2023-02-15T11:32:49;8.50;99.90
18225;DHT22;9237;48.590;8.854;2023-02-15T11:35:23;8.60;99.90
18225;DHT22;9237;48.590;8.854;2023-02-15T11:37:57;8.70;99.90
18225;DHT22;9237;48.590;8.854;2023-02-15T11:40:28;8.90;99.90
18225;DHT22;9237;48.590;8.854;2023-02-15T11:42:56;8.80;99.90
18225;DHT22;9237;48.590;8.854;2023-02-15T11:45:28;8.90;99.90
18225;DHT22;9237;48.590;8.854;2023-02-15T11:47:56;9.00;99.90
18225;DHT22;9237;48.590;8.854;2023-02-15T11:50:27;9.20;99.90
18225;DHT22;9237;48.590;8.854;2023-02-15T11:52:58;9.30;99.90
18225;DHT22;9237;48.590;8.854;2023-02-15T11:55:27;9.40;99.90
18225;DHT22;9237;48.590;8.854;2023-02-15T11:57:59;9.40;99.90
18225;DHT22;9237;48.590;8.854;2023-02-15T12:00:33;9.70;99.90
18225;DHT22;9237;48.590;8.854;2023-02-15T12:03:07;9.90;99.90
18225;DHT22;9237;48.590;8.854;2023-02-15T12:05:40;10.00;99.90
18225;DHT22;9237;48.590;8.854;2023-02-15T12:08:16;10.00;99.90
18225;DHT22;9237;48.590;8.854;2023-02-15T12:11:02;10.10;99.90
18225;DHT22;9237;48.590;8.854;2023-02-15T12:13:32;10.20;99.90
18225;DHT22;9237;48.590;8.854;2023-02-15T12:16:06;10.30;99.90
18225;DHT22;9237;48.590;8.854;2023-02-15T12:18:36;10.50;99.90
18225;DHT22;9237;48.590;8.854;2023-02-15T12:21:07;10.50;99.90
18225;DHT22;9237;48.590;8.854;2023-02-15T12:23:42;10.80;99.90
18225;DHT22;9237;48.590;8.854;2023-02-15T12:26:10;10.80;99.90
18225;DHT22;9237;48.590;8.854;2023-02-15T12:28:40;10.80;99.90
18225;DHT22;9237;48.590;8.854;2023-02-15T12:31:18;10.90;99.90
18225;DHT22;9237;48.590;8.854;2023-02-15T12:33:46;11.00;99.90
18225;DHT22;9237;48.590;8.854;2023-02-15T12:36:18;11.10;99.90
18225;DHT22;9237;48.590;8.854;2023-02-15T12:39:16;11.20;99.90
18225;DHT22;9237;48.590;8.854;2023-02-15T12:41:46;11.40;99.90
18225;DHT22;9237;48.590;8.854;2023-02-15T12:44:25;11.40;99.90
18225;DHT22;9237;48.590;8.854;2023-02-15T12:46:59;11.40;99.90
18225;DHT22;9237;48.590;8.854;2023-02-15T12:49:27;11.50;99.90
18225;DHT22;9237;48.590;8.854;2023-02-15T12:51:56;11.70;99.90
18225;DHT22;9237;48.590;8.854;2023-02-15T12:54:36;11.80;99.90
18225;DHT22;9237;48.590;8.854;2023-02-15T12:57:20;11.90;99.90
18225;DHT22;9237;48.590;8.854;2023-02-15T12:59:52;11.90;99.90
18225;DHT22;9237;48.590;8.854;2023-02-15T13:02:23;12.10;99.90
18225;DHT22;9237;48.590;8.854;2023-02-15T13:04:51;12.20;99.90
18225;DHT22;9237;48.590;8.854;2023-02-15T13:07:21;12.20;99.90
18225;DHT22;9237;48.590;8.854;2023-02-15T13:09:48;12.30;99.90
18225;DHT22;9237;48.590;8.854;2023-02-15T13:12:19;12.50;99.90
18225;DHT22;9237;48.590;8.854;2023-02-15T13:14:48;12.60;99.90
18225;DHT22;9237;48.590;8.854;2023-02-15T13:17:18;12.80;99.90
18225;DHT22;9237;48.590;8.854;2023-02-15T13:19:48;12.90;99.90
18225;DHT22;9237;48.590;8.854;2023-02-15T13:22:21;13.00;99.90
18225;DHT22;9237;48.590;8.854;2023-02-15T13:24:51;13.10;99.90
18225;DHT22;9237;48.590;8.854;2023-02-15T13:27:22;13.30;99.90
18225;DHT22;9237;48.590;8.854;2023-02-15T13:29:52;13.40;99.90
18225;DHT22;9237;48.590;8.854;2023-02-15T13:32:27;13.50;99.90
18225;DHT22;9237;48.590;8.854;2023-02-15T13:34:57;13.70;99.90
18225;DHT22;9237;48.590;8.854;2023-02-15T13:37:40;13.70;99.90
18225;DHT22;9237;48.590;8.854;2023-02-15T13:40:13;13.80;99.90
18225;DHT22;9237;48.590;8.854;2023-02-15T13:42:43;13.90;99.90
18225;DHT22;9237;48.590;8.854;2023-02-15T13:45:31;14.00;99.90
18225;DHT22;9237;48.590;8.854;2023-02-15T13:48:04;14.00;99.90
18225;DHT22;9237;48.590;8.854;2023-02-15T13:50:48;14.00;99.90
18225;DHT22;9237;48.590;8.854;2023-02-15T13:53:28;14.10;98.70
18225;DHT22;9237;48.590;8.854;2023-02-15T13:56:05;14.10;99.90
18225;DHT22;9237;48.590;8.854;2023-02-15T13:59:01;14.10;98.30
18225;DHT22;9237;48.590;8.854;2023-02-15T14:01:36;14.20;99.00
18225;DHT22;9237;48.590;8.854;2023-02-15T14:07:33;14.40;94.90
18225;DHT22;9237;48.590;8.854;2023-02-15T14:10:20;14.50;95.00
18225;DHT22;9237;48.590;8.854;2023-02-15T14:13:03;14.50;95.10
18225;DHT22;9237;48.590;8.854;2023-02-15T14:15:39;14.60;95.80
18225;DHT22;9237;48.590;8.854;2023-02-15T14:18:15;15.10;94.10
18225;DHT22;9237;48.590;8.854;2023-02-15T14:20:56;16.30;93.60
18225;DHT22;9237;48.590;8.854;2023-02-15T14:23:33;18.60;92.80
18225;DHT22;9237;48.590;8.854;2023-02-15T14:26:10;20.40;90.20
18225;DHT22;9237;48.590;8.854;2023-02-15T14:28:43;21.30;88.00
18225;DHT22;9237;48.590;8.854;2023-02-15T14:31:13;22.10;81.90
18225;DHT22;9237;48.590;8.854;2023-02-15T14:33:49;22.90;79.50
18225;DHT22;9237;48.590;8.854;2023-02-15T14:36:19;23.30;75.70
18225;DHT22;9237;48.590;8.854;2023-02-15T14:39:02;23.10;73.10
18225;DHT22;9237;48.590;8.854;2023-02-15T14:41:36;23.10;71.40
18225;DHT22;9237;48.590;8.854;2023-02-15T14:44:10;23.40;68.80
18225;DHT22;9237;48.590;8.854;2023-02-15T14:46:45;23.50;66.30
18225;DHT22;9237;48.590;8.854;2023-02-15T14:49:16;23.10;63.60
18225;DHT22;9237;48.590;8.854;2023-02-15T14:51:54;22.40;62.30
18225;DHT22;9237;48.590;8.854;2023-02-15T14:54:53;22.70;61.20
18225;DHT22;9237;48.590;8.854;2023-02-15T14:57:27;22.80;59.00
18225;DHT22;9237;48.590;8.854;2023-02-15T14:59:57;22.90;57.80
18225;DHT22;9237;48.590;8.854;2023-02-15T15:02:28;22.60;56.70
18225;DHT22;9237;48.590;8.854;2023-02-15T15:05:07;22.60;56.40
18225;DHT22;9237;48.590;8.854;2023-02-15T15:07:42;23.00;55.70
18225;DHT22;9237;48.590;8.854;2023-02-15T15:10:38;23.10;54.80
18225;DHT22;9237;48.590;8.854;2023-02-15T15:13:37;22.00;53.80
18225;DHT22;9237;48.590;8.854;2023-02-15T15:16:30;21.60;53.90
18225;DHT22;9237;48.590;8.854;2023-02-15T15:18:58;21.50;54.50
18225;DHT22;9237;48.590;8.854;2023-02-15T15:21:55;21.50;53.20
18225;DHT22;9237;48.590;8.854;2023-02-15T15:24:49;21.40;52.80
18225;DHT22;9237;48.590;8.854;2023-02-15T15:27:36;21.30;53.10
18225;DHT22;9237;48.590;8.854;2023-02-15T15:34:13;21.00;53.30
18225;DHT22;9237;48.590;8.854;2023-02-15T15:37:09;21.00;53.30
18225;DHT22;9237;48.590;8.854;2023-02-15T15:40:17;20.40;53.10
18225;DHT22;9237;48.590;8.854;2023-02-15T15:42:51;20.40;52.90
18225;DHT22;9237;48.590;8.854;2023-02-15T15:45:47;19.90;54.10
18225;DHT22;9237;48.590;8.854;2023-02-15T15:48:30;19.50;53.40
18225;DHT22;9237;48.590;8.854;2023-02-15T15:50:59;19.20;53.30
18225;DHT22;9237;48.590;8.854;2023-02-15T15:53:29;18.70;53.90
18225;DHT22;9237;48.590;8.854;2023-02-15T15:56:00;18.50;54.60
18225;DHT22;9237;48.590;8.854;2023-02-15T15:58:31;17.90;55.40
18225;DHT22;9237;48.590;8.854;2023-02-15T16:01:04;17.00;57.60
18225;DHT22;9237;48.590;8.854;2023-02-15T16:03:32;16.10;60.20
18225;DHT22;9237;48.590;8.854;2023-02-15T16:05:59;15.90;61.70
18225;DHT22;9237;48.590;8.854;2023-02-15T16:08:29;15.70;62.20
18225;DHT22;9237;48.590;8.854;2023-02-15T16:10:57;15.50;60.80
18225;DHT22;9237;48.590;8.854;2023-02-15T16:13:24;15.30;62.40
18225;DHT22;9237;48.590;8.854;2023-02-15T16:15:53;14.90;64.80
18225;DHT22;9237;48.590;8.854;2023-02-15T16:18:23;14.20;69.20
18225;DHT22;9237;48.590;8.854;2023-02-15T16:20:54;13.40;70.70
18225;DHT22;9237;48.590;8.854;2023-02-15T16:23:46;12.60;72.70
18225;DHT22;9237;48.590;8.854;2023-02-15T16:26:28;11.90;75.20
18225;DHT22;9237;48.590;8.854;2023-02-15T16:28:58;11.30;78.00
18225;DHT22;9237;48.590;8.854;2023-02-15T16:31:27;10.90;81.20
18225;DHT22;9237;48.590;8.854;2023-02-15T16:33:55;10.60;82.20
18225;DHT22;9237;48.590;8.854;2023-02-15T16:36:23;10.50;83.70
18225;DHT22;9237;48.590;8.854;2023-02-15T16:39:06;10.40;83.30
18225;DHT22;9237;48.590;8.854;2023-02-15T16:41:34;10.30;83.30